Time;durP1;ratioP1;P1;durP2;ratioP2;P2;SDS_P1;SDS_P2;PMS_P1;PMS_P2;Temp;Humidity;BMP_temperature;BMP_pressure;BME280_temperature;BME280_humidity;BME280_pressure;Samples;Min_cycle;Max_cycle;Signal;HPM_P1;HPM_P2
2021/04/28 00:01:08;;;;;;;4.50;3.20;;;;;;;18.38;52.22;97929.09;5045879;28;20199;-65
2021/04/28 00:03:34;;;;;;;6.00;3.40;;;;;;;18.37;52.20;97936.31;5049016;28;20405;-63
2021/04/28 00:06:00;;;;;;;5.75;3.40;;;;;;;18.37;52.27;97938.16;5048228;28;20049;-65
2021/04/28 00:08:26;;;;;;;4.72;3.20;;;;;;;18.37;52.32;97932.78;5049265;28;20056;-66
2021/04/28 00:10:51;;;;;;;5.20;3.13;;;;;;;18.38;52.20;97921.88;5048319;28;20402;-64
2021/04/28 00:13:17;;;;;;;4.00;3.10;;;;;;;18.38;52.22;97912.94;5048438;28;20119;-65
2021/04/28 00:15:47;;;;;;;5.40;3.33;;;;;;;18.37;52.27;97924.69;5043491;28;20045;-64
2021/04/28 00:18:13;;;;;;;4.88;3.42;;;;;;;18.37;52.14;97919.31;5047708;28;20037;-65
2021/04/28 00:20:40;;;;;;;4.10;3.20;;;;;;;18.38;52.11;97918.31;5048124;28;20126;-65
2021/04/28 00:23:07;;;;;;;5.60;2.80;;;;;;;18.36;52.21;97912.19;5048002;28;20478;-63
2021/04/28 00:25:33;;;;;;;5.47;3.22;;;;;;;18.37;52.22;97916.63;5048150;28;21279;-65
2021/04/28 00:27:58;;;;;;;5.32;3.15;;;;;;;18.39;52.20;97920.03;5048012;28;20099;-64
2021/04/28 00:30:25;;;;;;;4.30;2.80;;;;;;;18.37;52.14;97908.56;5045993;28;20126;-64
2021/04/28 00:32:52;;;;;;;4.60;3.05;;;;;;;18.38;52.13;97907.56;5047916;28;20068;-66
2021/04/28 00:35:18;;;;;;;4.38;2.67;;;;;;;18.38;52.13;97902.19;5048185;28;20036;-65
2021/04/28 00:37:45;;;;;;;3.72;2.85;;;;;;;18.37;52.07;97904.03;5048118;28;20128;-64
2021/04/28 00:40:14;;;;;;;4.13;3.15;;;;;;;18.37;52.14;97895.94;5048103;28;20163;-66
2021/04/28 00:42:41;;;;;;;4.63;3.05;;;;;;;18.35;52.17;97902.41;5047890;28;20049;-64
2021/04/28 00:45:08;;;;;;;4.30;2.88;;;;;;;18.36;52.22;97898.75;5045253;28;20094;-64
2021/04/28 00:47:33;;;;;;;4.82;2.92;;;;;;;18.35;52.25;97892.50;5047636;28;20407;-64
2021/04/28 00:50:00;;;;;;;4.28;3.03;;;;;;;18.35;52.30;97897.88;5047742;28;20044;-65
2021/04/28 00:52:27;;;;;;;4.68;2.95;;;;;;;18.35;52.20;97897.03;5047854;28;20483;-66
2021/04/28 00:54:53;;;;;;;4.13;2.85;;;;;;;18.33;52.29;97891.75;5047595;28;20048;-64
2021/04/28 00:57:19;;;;;;;4.40;3.00;;;;;;;18.32;52.35;97895.41;5047071;28;20065;-65
2021/04/28 00:59:45;;;;;;;3.90;3.20;;;;;;;18.34;52.05;97900.69;5044193;28;20048;-66
2021/04/28 01:02:11;;;;;;;3.97;2.80;;;;;;;18.35;52.10;97903.28;5047448;28;20579;-65
2021/04/28 01:04:37;;;;;;;3.72;2.90;;;;;;;18.34;52.21;97898.00;5046777;28;20095;-64
2021/04/28 01:10:00;;;;;;;3.35;2.60;;;;;;;18.33;52.24;97896.28;5128342;27;20345;-64
2021/04/28 01:12:28;;;;;;;5.15;2.88;;;;;;;18.35;52.21;97891.66;5126250;27;20477;-65
2021/04/28 01:14:54;;;;;;;3.83;2.80;;;;;;;18.34;51.93;97895.28;5123138;27;20055;-65
2021/04/28 01:17:20;;;;;;;4.15;2.92;;;;;;;18.34;52.08;97900.69;5127066;27;20043;-64
2021/04/28 01:19:46;;;;;;;4.07;2.85;;;;;;;18.37;52.00;97897.78;5127659;27;20055;-66
2021/04/28 01:22:12;;;;;;;4.40;3.00;;;;;;;18.35;51.99;97889.81;5127713;27;20039;-63
2021/04/28 01:24:39;;;;;;;4.07;3.00;;;;;;;18.36;52.02;97896.91;5126165;27;20126;-64
2021/04/28 01:27:12;;;;;;;3.97;2.80;;;;;;;18.36;52.01;97890.66;5126223;27;20051;-66
2021/04/28 01:29:40;;;;;;;3.80;2.88;;;;;;;18.36;52.09;97898.75;5124477;27;20479;-66
2021/04/28 01:32:08;;;;;;;3.75;2.88;;;;;;;18.37;52.02;97892.41;5127274;27;20043;-64
2021/04/28 01:34:35;;;;;;;4.27;2.77;;;;;;;18.37;51.97;97892.41;5129070;27;20043;-66
2021/04/28 01:37:02;;;;;;;4.95;2.80;;;;;;;18.37;51.96;97893.25;5125748;27;20150;-65
2021/04/28 01:39:30;;;;;;;4.15;2.90;;;;;;;18.37;51.99;97895.09;5126863;27;20054;-64
2021/04/28 01:41:57;;;;;;;4.32;3.20;;;;;;;18.36;51.97;97896.03;5124992;27;20055;-66
2021/04/28 01:44:23;;;;;;;4.13;2.80;;;;;;;18.35;51.95;97895.19;5127427;27;20046;-66
2021/04/28 01:46:53;;;;;;;5.90;2.88;;;;;;;18.36;51.94;97887.97;5123767;27;20134;-66
2021/04/28 01:49:19;;;;;;;4.55;2.83;;;;;;;18.37;51.97;97884.31;5124266;27;20138;-65
2021/04/28 01:51:45;;;;;;;4.03;2.85;;;;;;;18.35;52.09;97883.56;5126049;27;20047;-65
2021/04/28 01:54:18;;;;;;;3.78;2.75;;;;;;;18.34;52.06;97880.00;5126586;27;20042;-64
2021/04/28 01:56:47;;;;;;;4.55;2.55;;;;;;;18.36;52.01;97879.91;5127148;27;20039;-65
2021/04/28 01:59:15;;;;;;;4.13;2.83;;;;;;;18.35;52.03;97881.72;5127221;27;20071;-64
2021/04/28 02:01:43;;;;;;;3.53;2.70;;;;;;;18.36;52.00;97878.06;5122060;27;20051;-64
2021/04/28 02:04:09;;;;;;;4.45;2.70;;;;;;;18.36;51.93;97885.28;5126527;27;20049;-63
2021/04/28 02:06:37;;;;;;;4.13;2.80;;;;;;;18.35;52.00;97883.56;5127400;27;20424;-65
2021/04/28 02:09:04;;;;;;;3.70;2.60;;;;;;;18.35;51.94;97883.56;5124674;27;20142;-65
2021/04/28 02:11:30;;;;;;;3.80;2.95;;;;;;;18.34;51.80;97880.00;5126630;27;20043;-64
2021/04/28 02:13:57;;;;;;;3.97;2.50;;;;;;;18.36;51.86;97885.28;5124931;27;20035;-64
2021/04/28 02:16:25;;;;;;;4.15;2.50;;;;;;;18.36;51.80;97877.19;5123046;27;20045;-66
2021/04/28 02:18:52;;;;;;;3.95;2.88;;;;;;;18.35;51.94;97875.50;5125531;27;20496;-64
2021/04/28 02:21:17;;;;;;;3.80;2.60;;;;;;;18.36;51.98;97877.19;5112386;27;20044;-65
2021/04/28 02:23:44;;;;;;;4.00;2.90;;;;;;;18.35;51.97;97875.50;5113405;27;20043;-64
2021/04/28 02:26:10;;;;;;;3.90;2.67;;;;;;;18.35;52.09;97864.72;5111276;27;20074;-65
2021/04/28 02:28:36;;;;;;;3.42;2.70;;;;;;;18.36;51.79;97866.44;5111881;27;20071;-65
2021/04/28 02:31:02;;;;;;;3.55;2.60;;;;;;;18.36;51.97;97858.38;5106457;27;20539;-65
2021/04/28 02:33:28;;;;;;;4.03;2.50;;;;;;;18.35;51.97;97854.81;5112893;27;20040;-64
2021/04/28 02:35:56;;;;;;;4.63;2.75;;;;;;;18.35;51.82;97853.97;5110232;27;20044;-64
2021/04/28 02:38:26;;;;;;;4.53;2.63;;;;;;;18.34;52.13;97852.22;5111207;27;20040;-65
2021/04/28 02:40:52;;;;;;;3.45;2.40;;;;;;;18.33;52.00;97851.38;5111197;27;20047;-64
2021/04/28 02:43:19;;;;;;;3.17;2.58;;;;;;;18.34;52.11;97845.00;5113636;27;20047;-64
2021/04/28 02:45:49;;;;;;;3.85;2.53;;;;;;;18.33;51.83;97846.00;5112405;27;20122;-64
2021/04/28 02:48:16;;;;;;;3.72;2.60;;;;;;;18.34;51.93;97849.53;5114306;27;20491;-63
2021/04/28 02:50:43;;;;;;;3.83;2.60;;;;;;;18.34;51.99;97852.22;5111307;27;20725;-65
2021/04/28 02:53:12;;;;;;;3.50;2.83;;;;;;;18.33;52.17;97842.44;5111988;27;20062;-63
2021/04/28 02:55:38;;;;;;;3.00;2.40;;;;;;;18.34;51.96;97846.84;5112966;27;20039;-64
2021/04/28 02:58:05;;;;;;;3.67;2.72;;;;;;;18.35;51.89;97848.59;5114322;27;20039;-65
2021/04/28 03:00:31;;;;;;;4.40;2.70;;;;;;;18.35;51.84;97852.13;5111176;27;20092;-65
2021/04/28 03:02:58;;;;;;;4.55;2.88;;;;;;;18.34;51.98;97847.69;5111491;27;20044;-64
2021/04/28 03:05:25;;;;;;;3.15;2.40;;;;;;;18.34;51.84;97852.22;5112185;27;20048;-64
2021/04/28 03:07:53;;;;;;;3.05;2.40;;;;;;;18.32;52.02;97844.25;5112401;27;20040;-64
2021/04/28 03:10:20;;;;;;;3.75;2.40;;;;;;;18.33;52.00;97848.69;5110979;27;20048;-65
2021/04/28 03:12:47;;;;;;;3.80;2.35;;;;;;;18.34;51.86;97853.09;5113613;27;20074;-65
2021/04/28 03:15:15;;;;;;;3.38;2.40;;;;;;;18.34;51.93;97852.22;5108310;28;20145;-63
2021/04/28 03:17:41;;;;;;;3.35;2.55;;;;;;;18.35;51.81;97853.97;5112032;27;20135;-64
2021/04/28 03:20:09;;;;;;;3.20;2.50;;;;;;;18.34;51.92;97852.22;5112395;27;20039;-65
2021/04/28 03:22:35;;;;;;;3.60;2.60;;;;;;;18.32;52.02;97851.47;5114147;27;20046;-65
2021/04/28 03:25:02;;;;;;;4.03;3.20;;;;;;;18.33;51.78;97846.00;5113172;27;20525;-66
2021/04/28 03:27:28;;;;;;;3.15;2.60;;;;;;;18.33;51.88;97839.75;5110047;28;20052;-64
2021/04/28 03:29:54;;;;;;;3.58;2.50;;;;;;;18.33;51.72;97854.06;5111639;27;20043;-66
2021/04/28 03:32:20;;;;;;;3.20;2.47;;;;;;;18.34;51.80;97855.78;5107979;27;20047;-65
2021/04/28 03:34:45;;;;;;;3.50;2.67;;;;;;;18.34;51.81;97852.22;5112922;27;20051;-64
2021/04/28 03:37:11;;;;;;;3.58;2.50;;;;;;;18.35;51.82;97864.72;5111707;27;20131;-66
2021/04/28 03:39:37;;;;;;;3.60;2.75;;;;;;;18.34;51.83;97863.00;5111111;27;20055;-65
2021/04/28 03:42:04;;;;;;;3.17;2.40;;;;;;;18.34;51.86;97866.53;5111239;27;20043;-65
2021/04/28 03:44:29;;;;;;;3.47;2.63;;;;;;;18.32;51.89;97859.56;5111932;27;20149;-65
2021/04/28 03:46:58;;;;;;;3.35;2.53;;;;;;;18.35;51.75;97860.19;5109664;27;20676;-66
2021/04/28 03:49:23;;;;;;;3.20;2.45;;;;;;;18.34;51.89;97860.31;5113007;27;20120;-66
2021/04/28 03:51:49;;;;;;;3.22;2.35;;;;;;;18.34;51.75;97866.53;5110824;27;20093;-66
2021/04/28 03:54:16;;;;;;;3.30;2.30;;;;;;;18.34;51.87;97868.38;5110850;27;20039;-65
2021/04/28 03:56:42;;;;;;;3.40;2.40;;;;;;;18.31;52.05;97864.09;5110896;27;20134;-63
2021/04/28 03:59:10;;;;;;;3.20;2.30;;;;;;;18.34;51.83;97868.38;5111042;27;20163;-65
2021/04/28 04:01:35;;;;;;;3.88;2.50;;;;;;;18.35;51.74;97875.50;5108832;27;20047;-65
2021/04/28 04:04:02;;;;;;;4.53;2.50;;;;;;;18.33;51.81;97867.53;5110296;28;20051;-65
2021/04/28 04:06:28;;;;;;;3.53;2.47;;;;;;;18.34;51.82;97868.38;5109829;27;20088;-66
2021/04/28 04:08:53;;;;;;;2.72;2.15;;;;;;;18.34;51.89;97869.22;5109911;27;20048;-67
2021/04/28 04:11:19;;;;;;;3.75;2.58;;;;;;;18.34;51.84;97874.63;5111571;27;20528;-66
2021/04/28 04:13:47;;;;;;;3.45;2.47;;;;;;;18.33;51.81;97875.59;5113015;27;20046;-64
2021/04/28 04:16:13;;;;;;;3.25;2.35;;;;;;;18.33;51.81;97872.06;5106455;27;20071;-65
2021/04/28 04:18:39;;;;;;;4.40;2.40;;;;;;;18.33;51.91;97874.75;5110423;28;20040;-66
2021/04/28 04:21:05;;;;;;;2.85;2.28;;;;;;;18.32;52.07;97867.63;5111716;27;20848;-64
2021/04/28 04:23:31;;;;;;;2.90;2.30;;;;;;;18.31;52.12;97868.63;5112737;27;20052;-65
2021/04/28 04:25:56;;;;;;;4.45;2.40;;;;;;;18.31;52.15;97869.47;5111100;27;20063;-66
2021/04/28 04:28:22;;;;;;;3.10;2.38;;;;;;;18.32;51.99;97868.47;5110597;27;20456;-63
2021/04/28 04:30:50;;;;;;;2.45;2.10;;;;;;;18.32;52.06;97876.56;5107311;27;20043;-64
2021/04/28 04:33:17;;;;;;;3.28;2.30;;;;;;;18.33;52.05;97869.38;5111315;27;20186;-66
2021/04/28 04:35:44;;;;;;;3.28;2.30;;;;;;;18.33;51.90;97883.69;5112098;27;20509;-66
2021/04/28 04:38:09;;;;;;;3.30;2.30;;;;;;;18.34;51.94;97876.44;5113018;27;20044;-64
2021/04/28 04:40:35;;;;;;;2.90;2.13;;;;;;;18.33;52.07;97882.81;5109630;28;20101;-66
2021/04/28 04:43:01;;;;;;;3.60;2.58;;;;;;;18.32;51.93;97881.94;5108653;27;20415;-63
2021/04/28 04:45:27;;;;;;;2.90;2.20;;;;;;;18.32;51.99;97873.88;5108204;27;20046;-64
2021/04/28 04:47:52;;;;;;;2.97;2.25;;;;;;;18.32;51.96;97890.00;5111439;27;20390;-63
2021/04/28 04:50:19;;;;;;;3.13;2.10;;;;;;;18.31;51.96;97887.47;5111477;27;20043;-66
2021/04/28 04:52:45;;;;;;;3.17;2.28;;;;;;;18.33;51.94;97882.81;5109598;28;20035;-63
2021/04/28 04:55:12;;;;;;;2.67;2.17;;;;;;;18.33;52.02;97888.22;5108019;27;20046;-66
2021/04/28 04:57:37;;;;;;;3.03;2.35;;;;;;;18.30;52.11;97881.19;5108247;28;20051;-65
2021/04/28 05:00:05;;;;;;;3.25;2.45;;;;;;;18.32;52.05;97886.47;5105790;28;20046;-64
2021/04/28 05:02:31;;;;;;;2.70;2.28;;;;;;;18.32;51.90;97892.72;5111492;27;20124;-65
2021/04/28 05:04:56;;;;;;;3.33;2.20;;;;;;;18.31;51.82;97882.06;5107887;27;20044;-64
2021/04/28 05:07:23;;;;;;;2.97;2.40;;;;;;;18.30;52.15;97883.88;5109244;28;20500;-65
2021/04/28 05:09:50;;;;;;;3.00;2.40;;;;;;;18.32;52.08;97886.47;5108884;28;20424;-65
2021/04/28 05:12:16;;;;;;;2.88;2.20;;;;;;;18.29;52.19;97890.25;5110800;28;20816;-65
2021/04/28 05:14:41;;;;;;;2.92;2.28;;;;;;;18.30;52.14;97888.41;5109339;28;20078;-65
2021/04/28 05:17:07;;;;;;;4.38;2.40;;;;;;;18.28;52.28;97891.22;5102441;28;20413;-65
2021/04/28 05:19:33;;;;;;;3.30;2.40;;;;;;;18.30;52.20;97901.88;5109168;28;20043;-67
2021/04/28 05:21:58;;;;;;;3.08;2.25;;;;;;;18.27;52.34;97901.13;5110114;28;20058;-65
2021/04/28 05:24:25;;;;;;;3.35;2.40;;;;;;;18.28;52.26;97893.91;5110291;28;20055;-63
2021/04/28 05:26:51;;;;;;;3.78;2.63;;;;;;;18.27;52.55;97906.50;5112637;28;20043;-66
2021/04/28 05:29:16;;;;;;;3.92;2.40;;;;;;;18.24;52.82;97906.72;5106041;28;20044;-67
2021/04/28 05:31:42;;;;;;;4.13;2.50;;;;;;;18.25;52.81;97903.06;5105234;28;20040;-67
2021/04/28 05:34:08;;;;;;;6.05;3.67;;;;;;;18.26;52.68;97899.41;5107865;28;20864;-67
2021/04/28 05:36:33;;;;;;;4.57;3.38;;;;;;;18.27;52.91;97897.56;5110240;28;20050;-70
2021/04/28 05:39:00;;;;;;;4.40;3.22;;;;;;;18.24;53.50;97906.72;5111284;28;20245;-66
2021/04/28 05:41:27;;;;;;;5.78;3.20;;;;;;;18.27;53.39;97905.66;5109435;27;20043;-66
2021/04/28 05:43:53;;;;;;;5.80;3.25;;;;;;;18.29;53.31;97905.53;5109053;28;20044;-67
2021/04/28 05:46:19;;;;;;;5.57;3.60;;;;;;;18.29;53.27;97909.09;5107569;28;20043;-67
2021/04/28 05:48:45;;;;;;;4.60;3.20;;;;;;;18.31;53.03;97909.00;5110269;28;20134;-64
2021/04/28 05:51:11;;;;;;;4.45;2.90;;;;;;;18.31;53.24;97912.53;5111029;28;20126;-67
2021/04/28 05:53:36;;;;;;;5.40;3.30;;;;;;;18.30;53.25;97905.41;5108336;28;20097;-65
2021/04/28 05:56:03;;;;;;;4.07;3.00;;;;;;;18.27;53.16;97905.66;5112071;27;20514;-68
2021/04/28 05:58:30;;;;;;;3.67;2.83;;;;;;;18.27;53.08;97917.25;5111771;27;20043;-68
2021/04/28 06:00:55;;;;;;;5.13;3.05;;;;;;;18.27;53.11;97914.56;5109744;27;20051;-64
2021/04/28 06:03:21;;;;;;;4.97;3.10;;;;;;;18.27;53.10;97922.66;5113769;27;20481;-67
2021/04/28 06:05:47;;;;;;;3.63;2.80;;;;;;;18.26;53.03;97923.63;5113209;27;20363;-64
2021/04/28 06:08:15;;;;;;;4.53;3.00;;;;;;;18.27;53.10;97916.41;5112808;27;20050;-66
2021/04/28 06:10:41;;;;;;;4.63;2.83;;;;;;;18.27;52.75;97922.66;5114113;27;20058;-65
2021/04/28 06:13:07;;;;;;;6.38;2.85;;;;;;;18.28;52.96;97923.50;5115827;27;20047;-64
2021/04/28 06:15:33;;;;;;;4.35;2.85;;;;;;;18.27;52.84;97919.94;5114156;27;20047;-68
2021/04/28 06:17:59;;;;;;;4.97;2.90;;;;;;;18.29;52.81;97921.69;5112055;27;20044;-65
2021/04/28 06:20:25;;;;;;;3.72;2.70;;;;;;;18.29;53.00;97911.78;5113454;27;20047;-67
2021/04/28 06:22:50;;;;;;;4.13;3.00;;;;;;;18.26;52.73;97923.63;5114000;27;20051;-65
2021/04/28 06:25:19;;;;;;;4.32;2.70;;;;;;;18.27;52.89;97930.72;5114876;27;20126;-65
2021/04/28 06:27:45;;;;;;;4.35;3.05;;;;;;;18.27;52.79;97928.03;5118166;27;21123;-65
2021/04/28 06:30:11;;;;;;;4.25;2.85;;;;;;;18.27;52.62;97925.34;5106308;28;20066;-65
2021/04/28 06:32:38;;;;;;;3.38;2.60;;;;;;;18.26;52.64;97918.25;5111977;27;20044;-69
2021/04/28 06:35:06;;;;;;;3.58;2.55;;;;;;;18.29;52.69;97919.00;5113220;27;20088;-69
2021/04/28 06:37:31;;;;;;;3.95;2.72;;;;;;;18.28;52.75;97923.50;5113447;27;20054;-67
2021/04/28 06:39:57;;;;;;;3.78;2.50;;;;;;;18.30;52.83;97932.31;5114900;27;20047;-68
2021/04/28 06:42:23;;;;;;;4.05;2.50;;;;;;;18.29;52.58;97929.78;5111460;27;20415;-66
2021/04/28 06:44:49;;;;;;;3.50;2.53;;;;;;;18.30;52.59;97920.72;5111993;27;20075;-67
2021/04/28 06:47:15;;;;;;;3.90;2.45;;;;;;;18.30;52.48;97928.78;5109247;27;20156;-65
2021/04/28 06:49:42;;;;;;;3.67;2.30;;;;;;;18.29;52.61;97924.38;5114562;27;20540;-66
2021/04/28 06:52:07;;;;;;;4.72;2.65;;;;;;;18.28;52.57;97936.97;5113380;27;20433;-69
2021/04/28 06:54:33;;;;;;;3.22;2.35;;;;;;;18.29;52.45;97925.25;5111208;27;20054;-65
2021/04/28 06:56:59;;;;;;;3.53;2.40;;;;;;;18.29;52.51;97929.78;5111492;27;20059;-66
2021/04/28 06:59:25;;;;;;;3.40;2.55;;;;;;;18.27;52.55;97937.94;5110491;27;20842;-69
2021/04/28 07:01:52;;;;;;;3.80;2.38;;;;;;;18.25;52.67;97923.72;5108444;27;20378;-66
2021/04/28 07:04:18;;;;;;;3.72;2.40;;;;;;;18.26;52.58;97931.72;5114276;27;20051;-65
2021/04/28 07:06:45;;;;;;;3.65;2.40;;;;;;;18.27;52.52;97933.41;5111446;27;20431;-69
2021/04/28 07:09:11;;;;;;;3.47;2.38;;;;;;;18.27;52.51;97936.09;5111233;27;20050;-66
2021/04/28 07:11:36;;;;;;;4.93;2.20;;;;;;;18.29;52.38;97935.16;5112616;27;20140;-65
2021/04/28 07:14:02;;;;;;;2.80;2.30;;;;;;;18.28;52.48;97934.25;5113700;27;20085;-65
2021/04/28 07:16:28;;;;;;;2.75;2.22;;;;;;;18.30;52.60;97928.78;5109649;27;20044;-65
2021/04/28 07:18:55;;;;;;;2.90;2.50;;;;;;;18.26;52.34;97931.72;5111845;27;20050;-65
2021/04/28 07:21:21;;;;;;;3.00;2.10;;;;;;;18.26;52.51;97941.63;5111057;27;20481;-65
2021/04/28 07:23:47;;;;;;;2.90;2.17;;;;;;;18.25;52.63;97938.03;5112933;27;20055;-67
2021/04/28 07:26:13;;;;;;;3.63;2.30;;;;;;;18.26;52.57;97944.31;5112822;27;20058;-65
2021/04/28 07:28:39;;;;;;;3.17;2.20;;;;;;;18.26;52.35;97937.09;5112110;27;20043;-68
2021/04/28 07:31:05;;;;;;;3.30;2.30;;;;;;;18.26;52.43;97947.84;5107540;27;20039;-68
2021/04/28 07:33:31;;;;;;;3.70;2.35;;;;;;;18.26;52.41;97947.84;5111791;27;20040;-66
2021/04/28 07:35:56;;;;;;;2.80;2.20;;;;;;;18.27;52.35;97946.00;5111123;27;20047;-66
2021/04/28 07:38:22;;;;;;;4.55;2.50;;;;;;;18.24;52.52;97949.78;5112866;27;20048;-66
2021/04/28 07:40:49;;;;;;;4.68;2.53;;;;;;;18.25;52.45;97948.81;5113828;27;20054;-66
2021/04/28 07:43:15;;;;;;;3.33;2.10;;;;;;;18.25;52.39;97951.50;5110352;27;20089;-64
2021/04/28 07:45:40;;;;;;;3.17;2.30;;;;;;;18.26;52.37;97955.94;5108694;27;20100;-67
2021/04/28 07:51:01;;;;;;;3.80;2.50;;;;;;;18.27;52.62;97970.25;5082360;27;20378;-65
2021/04/28 07:53:27;;;;;;;2.92;2.20;;;;;;;18.26;52.47;97971.22;5081703;28;20440;-68
2021/04/28 07:55:53;;;;;;;2.83;2.20;;;;;;;18.23;52.62;97964.19;5084357;28;20052;-66
2021/04/28 07:58:19;;;;;;;2.47;2.15;;;;;;;18.21;52.64;97968.84;5082103;28;20048;-64
2021/04/28 08:00:45;;;;;;;3.55;2.42;;;;;;;18.20;52.72;97963.59;5079900;28;20041;-67
2021/04/28 08:03:11;;;;;;;2.92;2.30;;;;;;;18.19;52.72;97962.69;5081724;28;20053;-69
2021/04/28 08:05:36;;;;;;;2.97;2.15;;;;;;;18.19;52.66;97970.75;5080123;28;20079;-65
2021/04/28 08:08:04;;;;;;;3.15;2.33;;;;;;;18.20;52.56;97967.13;5083565;28;20068;-68
2021/04/28 08:10:33;;;;;;;3.03;2.33;;;;;;;18.22;52.53;97970.56;5084742;28;20123;-67
2021/04/28 08:13:01;;;;;;;2.85;2.20;;;;;;;18.24;52.30;97965.09;5083071;28;20043;-69
2021/04/28 08:15:26;;;;;;;3.72;2.20;;;;;;;18.23;52.55;97979.50;5082212;28;20912;-65
2021/04/28 08:17:52;;;;;;;3.33;2.22;;;;;;;18.23;52.69;97979.50;5084832;28;20054;-65
2021/04/28 08:20:18;;;;;;;2.85;2.20;;;;;;;18.19;52.77;97984.22;5085707;28;20048;-68
2021/04/28 08:22:44;;;;;;;3.83;2.50;;;;;;;18.20;53.02;97988.66;5084869;28;20051;-67
2021/04/28 08:25:13;;;;;;;6.85;2.30;;;;;;;18.21;53.23;97993.03;5084052;28;20052;-65
2021/04/28 08:27:39;;;;;;;3.55;2.30;;;;;;;18.21;53.35;97993.03;5084804;28;20052;-64
2021/04/28 08:30:07;;;;;;;4.05;2.47;;;;;;;18.22;54.18;97999.31;5080104;28;20098;-67
2021/04/28 08:32:33;;;;;;;4.97;2.67;;;;;;;18.18;54.26;98000.50;5083460;28;20037;-65
2021/04/28 08:34:58;;;;;;;4.53;2.75;;;;;;;18.18;54.44;98001.34;5084071;28;20790;-66
2021/04/28 08:37:24;;;;;;;4.55;2.33;;;;;;;18.19;54.16;97997.69;5084258;28;20409;-64
2021/04/28 08:39:50;;;;;;;3.70;2.60;;;;;;;18.20;53.97;98002.09;5083777;28;20045;-65
2021/04/28 08:42:17;;;;;;;4.18;2.38;;;;;;;18.20;53.76;97996.72;5082953;28;20040;-66
2021/04/28 08:44:43;;;;;;;4.32;2.25;;;;;;;18.21;53.60;98006.50;5084700;28;20049;-64
2021/04/28 08:47:09;;;;;;;4.15;2.40;;;;;;;18.21;53.58;98016.41;5079269;28;20048;-64
2021/04/28 08:49:35;;;;;;;3.70;2.10;;;;;;;18.21;53.46;98009.19;5083798;28;20409;-64
2021/04/28 08:52:01;;;;;;;4.57;2.50;;;;;;;18.23;53.36;98011.78;5084164;28;20051;-66
2021/04/28 08:54:27;;;;;;;4.47;2.33;;;;;;;18.21;53.50;98017.28;5082567;28;20071;-65
2021/04/28 08:56:55;;;;;;;3.70;2.30;;;;;;;18.23;53.42;98022.56;5084568;28;20056;-64
2021/04/28 08:59:22;;;;;;;4.45;2.50;;;;;;;18.22;53.28;98019.00;5084090;28;20040;-66
2021/04/28 09:01:49;;;;;;;3.28;2.20;;;;;;;18.24;53.41;98018.91;5070444;28;20040;-66
